Northlander — ZGAE — position and weather

sailwx.info

Track history (hours):
 
Tides and Currents Weather Stations Pressure Air Temp Water Temp Dewpoint Dewpoint Depression Visibility Wind Speed Wind Dir Waves Ship Positions

Northlander

Last reported at 2016-Sep-28 01:33 UTC. Time now 2016-Sep-28 01:50 UTC.
Position N 39°34' E 002°38'.

Length 38 m; draft 2.5 m.

Type: Pleasure craft. MMSI: 319078000.

Date/timePositionNaut miles runAvg speedWind from/ knotsBaromVisibWave heightAir tempDewpointWater temp
2016-Sep-28 01:33N 39°34' E 002°38'0 0.0
2016-Sep-27 23:33N 39°34' E 002°38'0 0.0
2016-Sep-27 19:32N 39°34' E 002°38'0 0.0
2016-Sep-27 14:32N 39°34' E 002°38'0 0.0
2016-Sep-27 13:32N 39°34' E 002°38'0 0.0
2016-Sep-27 10:32N 39°34' E 002°38'0 0.0
2016-Sep-27 00:32N 39°34' E 002°38'0 0.0
2016-Sep-26 20:33N 39°34' E 002°38'0 0.0
2016-Sep-26 19:33N 39°34' E 002°38'0 0.0
2016-Sep-26 15:33N 39°34' E 002°38'0 0.0
2016-Sep-26 13:33N 39°34' E 002°38'0 0.0
2016-Sep-26 11:33N 39°34' E 002°38'0 0.0
2016-Sep-26 08:33N 39°34' E 002°38'38 6.3
2016-Sep-26 02:33N 39°17' E 001°54'1010.2
2016-Sep-26 01:32N 39°14' E 001°41'  
2016-Sep-20 14:33N 39°09' E 002°01'9 8.9
2016-Sep-20 13:33N 39°14' E 002°11'29 9.7
2016-Sep-20 10:34N 39°33' E 002°39'1 0.4
2016-Sep-20 08:31N 39°34' E 002°38'  
Track history (hours):
 
Tides and Currents Weather Stations Pressure Air Temp Water Temp Dewpoint Dewpoint Depression Visibility Wind Speed Wind Dir Waves Ship Positions

Northlander

Last reported at 2016-Sep-28 01:33 UTC. Time now 2016-Sep-28 01:50 UTC.
Position N 39°34' E 002°38'.

Length 38 m; draft 2.5 m.

Type: Pleasure craft. MMSI: 319078000.

Date/timePositionNaut miles runAvg speedWind from/ knotsBaromVisibWave heightAir tempDewpointWater temp
2016-Sep-28 01:33N 39°34' E 002°38'0 0.0
2016-Sep-27 23:33N 39°34' E 002°38'0 0.0
2016-Sep-27 19:32N 39°34' E 002°38'0 0.0
2016-Sep-27 14:32N 39°34' E 002°38'0 0.0
2016-Sep-27 13:32N 39°34' E 002°38'0 0.0
2016-Sep-27 10:32N 39°34' E 002°38'0 0.0
2016-Sep-27 00:32N 39°34' E 002°38'0 0.0
2016-Sep-26 20:33N 39°34' E 002°38'0 0.0
2016-Sep-26 19:33N 39°34' E 002°38'0 0.0
2016-Sep-26 15:33N 39°34' E 002°38'0 0.0
2016-Sep-26 13:33N 39°34' E 002°38'0 0.0
2016-Sep-26 11:33N 39°34' E 002°38'0 0.0
2016-Sep-26 08:33N 39°34' E 002°38'38 6.3
2016-Sep-26 02:33N 39°17' E 001°54'1010.2
2016-Sep-26 01:32N 39°14' E 001°41'  
2016-Sep-20 14:33N 39°09' E 002°01'9 8.9
2016-Sep-20 13:33N 39°14' E 002°11'29 9.7
2016-Sep-20 10:34N 39°33' E 002°39'1 0.4
2016-Sep-20 08:31N 39°34' E 002°38'  

Dump ship's entire track history